Portada
METAR-TAF:

METAR-TAF

Aeropuertos :

Aeropuerto de Granada

Granada, España

latitud: 37-11N, longitud: 003-47W, altitud: 567 m

Observación

El informe se hizo hace 31 minutos, a las 08:30 UTC
Viento calma
Temperatura 25°C
Humedad 39%
Presión 1021 hPa
Visibilidad 10 km o más
sin nubes por debajo de 1500 m y sin presencia de cumulonimbus.

METAR: LEGR 230830Z 00000KT CAVOK 25/10 Q1021

Hora: 11:01 (09:01 UTC)

Pronóstico

El informe se hizo hace 1 hora y 1 minutos, a las 08:00 UTC
Pronóstico válido del 23 a las 09 UTC al 24 a las 09 UTC
Viento 7 kt del sur-sureste
Visibilidad 10 km o más
sin nubes por debajo de 1500 m y sin presencia de cumulonimbus.

TAF: LEGR 230800Z 2309/2409 15007KT CAVOK TX34/2314Z TN20/2406Z

Observaciones y pronósticos meteorológicos de más de 4000 aeropuertos (mensajes METAR y TAF).

Los puntos amarillos y rojos representan las estaciones disponibles.

Ponga el ratón en el punto deseado para ver el nombre de la estación.

Haga clic para ver las observaciones y los pronósticos meteorológicos.

Para cambiar el mapa : haga clic en los botones verdes con una cruz de color negro para hacer un zoom, en el botón verde con un guión para alejar o en las flechas verdes para mapas adyacentes.


METAR-TAF: